sensor_id;sensor_type;location;lat;lon;timestamp;temperature;humidity
8099;DHT22;4092;47.876;9.372;2022-11-15T00:02:27;5.60;99.90
8099;DHT22;4092;47.876;9.372;2022-11-15T00:04:54;5.60;99.90
8099;DHT22;4092;47.876;9.372;2022-11-15T00:07:21;5.60;99.90
8099;DHT22;4092;47.876;9.372;2022-11-15T00:09:48;5.60;99.90
8099;DHT22;4092;47.876;9.372;2022-11-15T00:12:15;5.60;99.90
8099;DHT22;4092;47.876;9.372;2022-11-15T00:14:42;5.60;99.90
8099;DHT22;4092;47.876;9.372;2022-11-15T00:17:09;5.60;99.90
8099;DHT22;4092;47.876;9.372;2022-11-15T00:19:37;5.60;99.90
8099;DHT22;4092;47.876;9.372;2022-11-15T00:22:04;5.60;99.90
8099;DHT22;4092;47.876;9.372;2022-11-15T00:24:31;5.60;99.90
8099;DHT22;4092;47.876;9.372;2022-11-15T00:26:58;5.60;99.90
8099;DHT22;4092;47.876;9.372;2022-11-15T00:29:25;5.60;99.90
8099;DHT22;4092;47.876;9.372;2022-11-15T00:31:52;5.60;99.90
8099;DHT22;4092;47.876;9.372;2022-11-15T00:34:19;5.60;99.90
8099;DHT22;4092;47.876;9.372;2022-11-15T00:36:47;5.60;99.90
8099;DHT22;4092;47.876;9.372;2022-11-15T00:39:14;5.60;99.90
8099;DHT22;4092;47.876;9.372;2022-11-15T00:41:41;5.60;99.90
8099;DHT22;4092;47.876;9.372;2022-11-15T00:44:08;5.60;99.90
8099;DHT22;4092;47.876;9.372;2022-11-15T00:46:35;5.60;99.90
8099;DHT22;4092;47.876;9.372;2022-11-15T00:49:02;5.60;99.90
8099;DHT22;4092;47.876;9.372;2022-11-15T00:51:29;5.60;99.90
8099;DHT22;4092;47.876;9.372;2022-11-15T00:53:58;5.50;99.90
8099;DHT22;4092;47.876;9.372;2022-11-15T00:56:25;5.40;99.90
8099;DHT22;4092;47.876;9.372;2022-11-15T00:58:52;5.30;99.90
8099;DHT22;4092;47.876;9.372;2022-11-15T01:01:21;5.30;99.90
8099;DHT22;4092;47.876;9.372;2022-11-15T01:03:48;5.30;99.90
8099;DHT22;4092;47.876;9.372;2022-11-15T01:06:15;5.20;99.90
8099;DHT22;4092;47.876;9.372;2022-11-15T01:08:42;5.20;99.90
8099;DHT22;4092;47.876;9.372;2022-11-15T01:11:11;5.10;99.90
8099;DHT22;4092;47.876;9.372;2022-11-15T01:13:39;5.10;99.90
8099;DHT22;4092;47.876;9.372;2022-11-15T01:16:08;5.10;99.90
8099;DHT22;4092;47.876;9.372;2022-11-15T01:18:35;5.10;99.90
8099;DHT22;4092;47.876;9.372;2022-11-15T01:21:05;5.00;99.90
8099;DHT22;4092;47.876;9.372;2022-11-15T01:23:33;5.00;99.90
8099;DHT22;4092;47.876;9.372;2022-11-15T01:26:00;4.90;99.90
8099;DHT22;4092;47.876;9.372;2022-11-15T01:28:31;5.00;99.90
8099;DHT22;4092;47.876;9.372;2022-11-15T01:30:59;4.90;99.90
8099;DHT22;4092;47.876;9.372;2022-11-15T01:33:26;4.80;99.90
8099;DHT22;4092;47.876;9.372;2022-11-15T01:35:53;4.80;99.90
8099;DHT22;4092;47.876;9.372;2022-11-15T01:38:20;4.70;99.90
8099;DHT22;4092;47.876;9.372;2022-11-15T01:40:48;4.80;99.90
8099;DHT22;4092;47.876;9.372;2022-11-15T01:43:23;4.70;99.90
8099;DHT22;4092;47.876;9.372;2022-11-15T01:45:56;4.70;99.90
8099;DHT22;4092;47.876;9.372;2022-11-15T01:48:28;4.80;99.90
8099;DHT22;4092;47.876;9.372;2022-11-15T01:50:56;4.70;99.90
8099;DHT22;4092;47.876;9.372;2022-11-15T01:53:23;4.70;99.90
8099;DHT22;4092;47.876;9.372;2022-11-15T01:55:51;4.70;99.90
8099;DHT22;4092;47.876;9.372;2022-11-15T01:58:19;4.80;99.90
8099;DHT22;4092;47.876;9.372;2022-11-15T02:00:46;4.70;99.90
8099;DHT22;4092;47.876;9.372;2022-11-15T02:03:16;4.80;99.90
8099;DHT22;4092;47.876;9.372;2022-11-15T02:05:44;4.70;99.90
8099;DHT22;4092;47.876;9.372;2022-11-15T02:08:11;4.80;99.90
8099;DHT22;4092;47.876;9.372;2022-11-15T02:10:45;4.90;99.90
8099;DHT22;4092;47.876;9.372;2022-11-15T02:13:14;4.90;99.90
8099;DHT22;4092;47.876;9.372;2022-11-15T02:15:58;5.00;99.90
8099;DHT22;4092;47.876;9.372;2022-11-15T02:18:32;4.90;99.90
8099;DHT22;4092;47.876;9.372;2022-11-15T02:21:14;4.90;99.90
8099;DHT22;4092;47.876;9.372;2022-11-15T02:27:13;4.90;99.90
8099;DHT22;4092;47.876;9.372;2022-11-15T02:30:04;5.00;99.90
8099;DHT22;4092;47.876;9.372;2022-11-15T02:32:38;5.00;99.90
8099;DHT22;4092;47.876;9.372;2022-11-15T02:35:14;5.10;99.90
8099;DHT22;4092;47.876;9.372;2022-11-15T02:37:45;5.10;99.90
8099;DHT22;4092;47.876;9.372;2022-11-15T02:40:20;5.20;99.90
8099;DHT22;4092;47.876;9.372;2022-11-15T02:42:54;5.20;99.90
8099;DHT22;4092;47.876;9.372;2022-11-15T02:45:44;5.30;99.90
8099;DHT22;4092;47.876;9.372;2022-11-15T02:48:15;5.30;99.90
8099;DHT22;4092;47.876;9.372;2022-11-15T02:50:44;5.30;99.90
8099;DHT22;4092;47.876;9.372;2022-11-15T02:53:11;5.50;99.90
8099;DHT22;4092;47.876;9.372;2022-11-15T02:55:44;5.40;99.90
8099;DHT22;4092;47.876;9.372;2022-11-15T02:58:28;5.40;99.90
8099;DHT22;4092;47.876;9.372;2022-11-15T03:01:01;5.40;99.90
8099;DHT22;4092;47.876;9.372;2022-11-15T03:03:45;5.50;99.90
8099;DHT22;4092;47.876;9.372;2022-11-15T03:06:22;5.50;99.90
8099;DHT22;4092;47.876;9.372;2022-11-15T03:09:02;5.50;99.90
8099;DHT22;4092;47.876;9.372;2022-11-15T03:11:33;5.60;99.90
8099;DHT22;4092;47.876;9.372;2022-11-15T03:14:10;5.50;99.90
8099;DHT22;4092;47.876;9.372;2022-11-15T03:16:44;5.60;99.90
8099;DHT22;4092;47.876;9.372;2022-11-15T03:19:17;5.60;99.90
8099;DHT22;4092;47.876;9.372;2022-11-15T03:21:45;5.60;99.90
8099;DHT22;4092;47.876;9.372;2022-11-15T03:24:14;5.60;99.90
8099;DHT22;4092;47.876;9.372;2022-11-15T03:26:44;5.60;99.90
8099;DHT22;4092;47.876;9.372;2022-11-15T03:29:14;5.60;99.90
8099;DHT22;4092;47.876;9.372;2022-11-15T03:31:45;5.70;99.90
8099;DHT22;4092;47.876;9.372;2022-11-15T03:34:20;5.80;99.90
8099;DHT22;4092;47.876;9.372;2022-11-15T03:36:50;5.80;99.90
8099;DHT22;4092;47.876;9.372;2022-11-15T03:39:19;5.80;99.90
8099;DHT22;4092;47.876;9.372;2022-11-15T03:41:49;5.90;99.90
8099;DHT22;4092;47.876;9.372;2022-11-15T03:44:29;5.90;99.90
8099;DHT22;4092;47.876;9.372;2022-11-15T03:47:03;5.80;99.90
8099;DHT22;4092;47.876;9.372;2022-11-15T03:49:34;5.70;99.90
8099;DHT22;4092;47.876;9.372;2022-11-15T03:52:02;5.70;99.90
8099;DHT22;4092;47.876;9.372;2022-11-15T03:54:30;5.70;99.90
8099;DHT22;4092;47.876;9.372;2022-11-15T03:56:57;5.70;99.90
8099;DHT22;4092;47.876;9.372;2022-11-15T03:59:24;5.80;99.90
8099;DHT22;4092;47.876;9.372;2022-11-15T04:01:51;5.80;99.90
8099;DHT22;4092;47.876;9.372;2022-11-15T04:04:18;5.80;99.90
8099;DHT22;4092;47.876;9.372;2022-11-15T04:06:46;5.90;99.90
8099;DHT22;4092;47.876;9.372;2022-11-15T04:09:13;5.90;99.90
8099;DHT22;4092;47.876;9.372;2022-11-15T04:11:40;5.90;99.90
8099;DHT22;4092;47.876;9.372;2022-11-15T04:14:07;6.00;99.90
8099;DHT22;4092;47.876;9.372;2022-11-15T04:16:34;6.00;99.90
8099;DHT22;4092;47.876;9.372;2022-11-15T04:19:01;6.00;99.90
8099;DHT22;4092;47.876;9.372;2022-11-15T04:21:47;6.00;99.90
8099;DHT22;4092;47.876;9.372;2022-11-15T04:24:31;6.00;99.90
8099;DHT22;4092;47.876;9.372;2022-11-15T04:26:59;6.00;99.90
8099;DHT22;4092;47.876;9.372;2022-11-15T04:29:26;6.00;99.90
8099;DHT22;4092;47.876;9.372;2022-11-15T04:32:02;6.00;99.90
8099;DHT22;4092;47.876;9.372;2022-11-15T04:34:29;6.00;99.90
8099;DHT22;4092;47.876;9.372;2022-11-15T04:36:57;6.00;99.90
8099;DHT22;4092;47.876;9.372;2022-11-15T04:39:42;6.00;99.90
8099;DHT22;4092;47.876;9.372;2022-11-15T04:42:09;5.90;99.90
8099;DHT22;4092;47.876;9.372;2022-11-15T04:44:36;5.90;99.90
8099;DHT22;4092;47.876;9.372;2022-11-15T04:47:03;6.00;99.90
8099;DHT22;4092;47.876;9.372;2022-11-15T04:49:31;6.10;99.90
8099;DHT22;4092;47.876;9.372;2022-11-15T04:51:59;6.10;99.90
8099;DHT22;4092;47.876;9.372;2022-11-15T04:54:26;6.10;99.90
8099;DHT22;4092;47.876;9.372;2022-11-15T04:56:53;6.10;99.90
8099;DHT22;4092;47.876;9.372;2022-11-15T04:59:20;6.10;99.90
8099;DHT22;4092;47.876;9.372;2022-11-15T05:01:47;6.10;99.90
8099;DHT22;4092;47.876;9.372;2022-11-15T05:04:14;6.00;99.90
8099;DHT22;4092;47.876;9.372;2022-11-15T05:06:47;6.00;99.90
8099;DHT22;4092;47.876;9.372;2022-11-15T05:09:16;6.00;99.90
8099;DHT22;4092;47.876;9.372;2022-11-15T05:11:43;6.00;99.90
8099;DHT22;4092;47.876;9.372;2022-11-15T05:14:10;6.00;99.90
8099;DHT22;4092;47.876;9.372;2022-11-15T05:16:37;6.00;99.90
8099;DHT22;4092;47.876;9.372;2022-11-15T05:19:04;6.00;99.90
8099;DHT22;4092;47.876;9.372;2022-11-15T05:21:32;6.00;99.90
8099;DHT22;4092;47.876;9.372;2022-11-15T05:23:59;6.00;99.90
8099;DHT22;4092;47.876;9.372;2022-11-15T05:26:27;6.00;99.90
8099;DHT22;4092;47.876;9.372;2022-11-15T05:28:55;6.00;99.90
8099;DHT22;4092;47.876;9.372;2022-11-15T05:31:23;6.00;99.90
8099;DHT22;4092;47.876;9.372;2022-11-15T05:33:51;6.00;99.90
8099;DHT22;4092;47.876;9.372;2022-11-15T05:36:21;6.00;99.90
8099;DHT22;4092;47.876;9.372;2022-11-15T05:38:52;6.00;99.90
8099;DHT22;4092;47.876;9.372;2022-11-15T05:41:22;5.90;99.90
8099;DHT22;4092;47.876;9.372;2022-11-15T05:43:53;5.80;99.90
8099;DHT22;4092;47.876;9.372;2022-11-15T05:46:20;5.80;99.90
8099;DHT22;4092;47.876;9.372;2022-11-15T05:48:49;5.80;99.90
8099;DHT22;4092;47.876;9.372;2022-11-15T05:51:17;5.80;99.90
8099;DHT22;4092;47.876;9.372;2022-11-15T05:53:46;5.70;99.90
8099;DHT22;4092;47.876;9.372;2022-11-15T05:56:14;5.50;99.90
8099;DHT22;4092;47.876;9.372;2022-11-15T05:58:42;5.50;99.90
8099;DHT22;4092;47.876;9.372;2022-11-15T06:01:11;5.50;99.90
8099;DHT22;4092;47.876;9.372;2022-11-15T06:03:38;5.40;99.90
8099;DHT22;4092;47.876;9.372;2022-11-15T06:06:05;5.30;99.90
8099;DHT22;4092;47.876;9.372;2022-11-15T06:08:32;5.20;99.90
8099;DHT22;4092;47.876;9.372;2022-11-15T06:11:03;5.10;99.90
8099;DHT22;4092;47.876;9.372;2022-11-15T06:13:31;5.10;99.90
8099;DHT22;4092;47.876;9.372;2022-11-15T06:15:58;5.10;99.90
8099;DHT22;4092;47.876;9.372;2022-11-15T06:18:26;5.00;99.90
8099;DHT22;4092;47.876;9.372;2022-11-15T06:20:54;5.00;99.90
8099;DHT22;4092;47.876;9.372;2022-11-15T06:23:24;4.90;99.90
8099;DHT22;4092;47.876;9.372;2022-11-15T06:25:51;4.90;99.90
8099;DHT22;4092;47.876;9.372;2022-11-15T06:28:18;4.80;99.90
8099;DHT22;4092;47.876;9.372;2022-11-15T06:30:45;4.80;99.90
8099;DHT22;4092;47.876;9.372;2022-11-15T06:33:12;4.80;99.90
8099;DHT22;4092;47.876;9.372;2022-11-15T06:35:41;4.90;99.90
8099;DHT22;4092;47.876;9.372;2022-11-15T06:38:09;5.00;99.90
8099;DHT22;4092;47.876;9.372;2022-11-15T06:40:37;5.00;99.90
8099;DHT22;4092;47.876;9.372;2022-11-15T06:43:05;5.00;99.90
8099;DHT22;4092;47.876;9.372;2022-11-15T06:45:32;5.00;99.90
8099;DHT22;4092;47.876;9.372;2022-11-15T06:48:00;5.00;99.90
8099;DHT22;4092;47.876;9.372;2022-11-15T06:50:26;5.00;99.90
8099;DHT22;4092;47.876;9.372;2022-11-15T06:52:55;5.00;99.90
8099;DHT22;4092;47.876;9.372;2022-11-15T06:55:22;5.00;99.90
8099;DHT22;4092;47.876;9.372;2022-11-15T06:57:50;5.00;99.90
8099;DHT22;4092;47.876;9.372;2022-11-15T07:00:18;5.00;99.90
8099;DHT22;4092;47.876;9.372;2022-11-15T07:02:45;5.00;99.90
8099;DHT22;4092;47.876;9.372;2022-11-15T07:05:13;5.00;99.90
8099;DHT22;4092;47.876;9.372;2022-11-15T07:07:40;5.00;99.90
8099;DHT22;4092;47.876;9.372;2022-11-15T07:10:09;5.10;99.90
8099;DHT22;4092;47.876;9.372;2022-11-15T07:12:36;5.10;99.90
8099;DHT22;4092;47.876;9.372;2022-11-15T07:15:04;5.20;99.90
8099;DHT22;4092;47.876;9.372;2022-11-15T07:17:32;5.20;99.90
8099;DHT22;4092;47.876;9.372;2022-11-15T07:19:59;5.30;99.90
8099;DHT22;4092;47.876;9.372;2022-11-15T07:22:26;5.30;99.90
8099;DHT22;4092;47.876;9.372;2022-11-15T07:24:52;5.40;99.90
8099;DHT22;4092;47.876;9.372;2022-11-15T07:27:21;5.50;99.90
8099;DHT22;4092;47.876;9.372;2022-11-15T07:29:48;5.60;99.90
8099;DHT22;4092;47.876;9.372;2022-11-15T07:32:15;5.80;99.90
8099;DHT22;4092;47.876;9.372;2022-11-15T07:34:42;6.00;99.90
8099;DHT22;4092;47.876;9.372;2022-11-15T07:37:11;6.10;99.90
8099;DHT22;4092;47.876;9.372;2022-11-15T07:39:38;6.30;99.90
8099;DHT22;4092;47.876;9.372;2022-11-15T07:42:05;6.40;99.90
8099;DHT22;4092;47.876;9.372;2022-11-15T07:44:51;6.60;99.90
8099;DHT22;4092;47.876;9.372;2022-11-15T07:47:18;6.80;99.90
8099;DHT22;4092;47.876;9.372;2022-11-15T07:49:46;6.90;99.90
8099;DHT22;4092;47.876;9.372;2022-11-15T07:52:13;7.00;99.90
8099;DHT22;4092;47.876;9.372;2022-11-15T07:54:40;7.10;99.90
8099;DHT22;4092;47.876;9.372;2022-11-15T07:57:07;7.20;99.90
8099;DHT22;4092;47.876;9.372;2022-11-15T07:59:35;7.30;99.90
8099;DHT22;4092;47.876;9.372;2022-11-15T08:02:03;7.50;99.90
8099;DHT22;4092;47.876;9.372;2022-11-15T08:04:31;7.60;99.90
8099;DHT22;4092;47.876;9.372;2022-11-15T08:06:58;7.80;99.90
8099;DHT22;4092;47.876;9.372;2022-11-15T08:09:25;8.00;99.90
8099;DHT22;4092;47.876;9.372;2022-11-15T08:11:52;8.10;99.90
8099;DHT22;4092;47.876;9.372;2022-11-15T08:14:22;8.30;99.90
8099;DHT22;4092;47.876;9.372;2022-11-15T08:16:49;8.40;99.90
8099;DHT22;4092;47.876;9.372;2022-11-15T08:19:17;8.60;99.90
8099;DHT22;4092;47.876;9.372;2022-11-15T08:21:44;8.70;99.90
8099;DHT22;4092;47.876;9.372;2022-11-15T08:24:11;8.90;99.90
8099;DHT22;4092;47.876;9.372;2022-11-15T08:26:38;9.00;99.90
8099;DHT22;4092;47.876;9.372;2022-11-15T08:29:05;9.10;99.90
8099;DHT22;4092;47.876;9.372;2022-11-15T08:31:33;9.20;99.90
8099;DHT22;4092;47.876;9.372;2022-11-15T08:34:00;9.30;99.90
8099;DHT22;4092;47.876;9.372;2022-11-15T08:36:29;9.50;99.90
8099;DHT22;4092;47.876;9.372;2022-11-15T08:38:56;9.60;99.90
8099;DHT22;4092;47.876;9.372;2022-11-15T08:41:27;9.60;99.90
8099;DHT22;4092;47.876;9.372;2022-11-15T08:43:57;9.60;99.90
8099;DHT22;4092;47.876;9.372;2022-11-15T08:46:24;9.70;99.90
8099;DHT22;4092;47.876;9.372;2022-11-15T08:48:51;9.60;99.90
8099;DHT22;4092;47.876;9.372;2022-11-15T08:51:18;9.50;99.90
8099;DHT22;4092;47.876;9.372;2022-11-15T08:53:46;9.40;99.90
8099;DHT22;4092;47.876;9.372;2022-11-15T08:56:14;9.50;99.90
8099;DHT22;4092;47.876;9.372;2022-11-15T08:58:41;9.60;99.90
8099;DHT22;4092;47.876;9.372;2022-11-15T09:01:16;9.60;99.90
8099;DHT22;4092;47.876;9.372;2022-11-15T09:03:43;9.70;99.90
8099;DHT22;4092;47.876;9.372;2022-11-15T09:06:10;9.70;99.90
8099;DHT22;4092;47.876;9.372;2022-11-15T09:08:37;9.80;99.90
8099;DHT22;4092;47.876;9.372;2022-11-15T09:11:07;9.90;99.90
8099;DHT22;4092;47.876;9.372;2022-11-15T09:13:34;9.90;99.90
8099;DHT22;4092;47.876;9.372;2022-11-15T09:16:03;10.00;99.90
8099;DHT22;4092;47.876;9.372;2022-11-15T09:18:30;10.10;99.90
8099;DHT22;4092;47.876;9.372;2022-11-15T09:20:58;10.10;99.90
8099;DHT22;4092;47.876;9.372;2022-11-15T09:23:25;10.10;99.90
8099;DHT22;4092;47.876;9.372;2022-11-15T09:25:57;10.20;99.90
8099;DHT22;4092;47.876;9.372;2022-11-15T09:28:26;10.30;99.90
8099;DHT22;4092;47.876;9.372;2022-11-15T09:30:56;10.30;99.90
8099;DHT22;4092;47.876;9.372;2022-11-15T09:33:24;10.50;99.90
8099;DHT22;4092;47.876;9.372;2022-11-15T09:35:51;10.50;99.90
8099;DHT22;4092;47.876;9.372;2022-11-15T09:38:18;10.70;99.90
8099;DHT22;4092;47.876;9.372;2022-11-15T09:40:49;10.70;99.90
8099;DHT22;4092;47.876;9.372;2022-11-15T09:43:31;10.70;99.90
8099;DHT22;4092;47.876;9.372;2022-11-15T09:46:08;10.60;99.90
8099;DHT22;4092;47.876;9.372;2022-11-15T09:48:48;10.70;99.90
8099;DHT22;4092;47.876;9.372;2022-11-15T09:51:24;10.70;99.90
8099;DHT22;4092;47.876;9.372;2022-11-15T09:54:01;10.70;99.90
8099;DHT22;4092;47.876;9.372;2022-11-15T09:56:32;10.80;99.90
8099;DHT22;4092;47.876;9.372;2022-11-15T09:59:14;10.90;99.90
8099;DHT22;4092;47.876;9.372;2022-11-15T10:01:50;10.90;99.90
8099;DHT22;4092;47.876;9.372;2022-11-15T10:04:21;11.10;99.90
8099;DHT22;4092;47.876;9.372;2022-11-15T10:06:54;11.10;99.90
8099;DHT22;4092;47.876;9.372;2022-11-15T10:09:26;11.10;99.90
8099;DHT22;4092;47.876;9.372;2022-11-15T10:11:56;11.30;99.90
8099;DHT22;4092;47.876;9.372;2022-11-15T10:14:28;11.40;99.90
8099;DHT22;4092;47.876;9.372;2022-11-15T10:17:09;11.40;99.90
8099;DHT22;4092;47.876;9.372;2022-11-15T10:19:49;11.30;99.90
8099;DHT22;4092;47.876;9.372;2022-11-15T10:22:28;11.40;99.90
8099;DHT22;4092;47.876;9.372;2022-11-15T10:27:52;11.30;99.90
8099;DHT22;4092;47.876;9.372;2022-11-15T10:30:21;11.50;99.90
8099;DHT22;4092;47.876;9.372;2022-11-15T10:32:48;11.60;99.90
8099;DHT22;4092;47.876;9.372;2022-11-15T10:35:22;11.50;99.90
8099;DHT22;4092;47.876;9.372;2022-11-15T10:37:50;11.60;99.90
8099;DHT22;4092;47.876;9.372;2022-11-15T10:40:19;11.60;99.90
8099;DHT22;4092;47.876;9.372;2022-11-15T10:42:46;11.70;99.90
8099;DHT22;4092;47.876;9.372;2022-11-15T10:45:33;11.80;99.90
8099;DHT22;4092;47.876;9.372;2022-11-15T10:48:23;11.80;99.90
8099;DHT22;4092;47.876;9.372;2022-11-15T10:50:51;12.00;99.90
8099;DHT22;4092;47.876;9.372;2022-11-15T10:53:27;12.00;99.90
8099;DHT22;4092;47.876;9.372;2022-11-15T10:56:00;11.90;99.90
8099;DHT22;4092;47.876;9.372;2022-11-15T10:58:34;11.90;99.90
8099;DHT22;4092;47.876;9.372;2022-11-15T11:01:12;11.70;99.90
8099;DHT22;4092;47.876;9.372;2022-11-15T11:03:41;11.50;99.90
8099;DHT22;4092;47.876;9.372;2022-11-15T11:06:10;11.40;99.90
8099;DHT22;4092;47.876;9.372;2022-11-15T11:08:38;11.30;99.90
8099;DHT22;4092;47.876;9.372;2022-11-15T11:11:06;11.20;99.90
8099;DHT22;4092;47.876;9.372;2022-11-15T11:13:35;11.20;99.90
8099;DHT22;4092;47.876;9.372;2022-11-15T11:16:21;11.20;99.90
8099;DHT22;4092;47.876;9.372;2022-11-15T11:19:02;11.20;99.90
8099;DHT22;4092;47.876;9.372;2022-11-15T11:21:38;11.20;99.90
8099;DHT22;4092;47.876;9.372;2022-11-15T11:24:14;11.30;99.90
8099;DHT22;4092;47.876;9.372;2022-11-15T11:26:53;11.40;99.90
8099;DHT22;4092;47.876;9.372;2022-11-15T11:29:33;11.40;99.90
8099;DHT22;4092;47.876;9.372;2022-11-15T11:32:23;11.40;99.90
8099;DHT22;4092;47.876;9.372;2022-11-15T11:34:58;11.30;99.90
8099;DHT22;4092;47.876;9.372;2022-11-15T11:37:32;11.20;99.90
8099;DHT22;4092;47.876;9.372;2022-11-15T11:40:14;11.20;99.90
8099;DHT22;4092;47.876;9.372;2022-11-15T11:42:50;10.90;99.90
8099;DHT22;4092;47.876;9.372;2022-11-15T11:45:46;10.80;99.90
8099;DHT22;4092;47.876;9.372;2022-11-15T11:48:27;10.40;99.90
8099;DHT22;4092;47.876;9.372;2022-11-15T11:51:04;10.30;99.90
8099;DHT22;4092;47.876;9.372;2022-11-15T11:53:41;10.20;99.90
8099;DHT22;4092;47.876;9.372;2022-11-15T11:56:16;10.10;99.90
8099;DHT22;4092;47.876;9.372;2022-11-15T11:58:48;10.00;99.90
8099;DHT22;4092;47.876;9.372;2022-11-15T12:01:20;10.00;99.90
8099;DHT22;4092;47.876;9.372;2022-11-15T12:03:55;10.00;99.90
8099;DHT22;4092;47.876;9.372;2022-11-15T12:06:29;10.10;99.90
8099;DHT22;4092;47.876;9.372;2022-11-15T12:09:01;10.10;99.90
8099;DHT22;4092;47.876;9.372;2022-11-15T12:11:34;10.10;99.90
8099;DHT22;4092;47.876;9.372;2022-11-15T12:14:05;10.10;99.90
8099;DHT22;4092;47.876;9.372;2022-11-15T12:16:38;10.20;99.90
8099;DHT22;4092;47.876;9.372;2022-11-15T12:19:08;10.10;99.90
8099;DHT22;4092;47.876;9.372;2022-11-15T12:21:41;10.00;99.90
8099;DHT22;4092;47.876;9.372;2022-11-15T12:24:13;9.90;99.90
8099;DHT22;4092;47.876;9.372;2022-11-15T12:26:47;9.90;99.90
8099;DHT22;4092;47.876;9.372;2022-11-15T12:29:18;10.00;99.90
8099;DHT22;4092;47.876;9.372;2022-11-15T12:31:50;9.90;99.90
8099;DHT22;4092;47.876;9.372;2022-11-15T12:34:42;9.90;99.90
8099;DHT22;4092;47.876;9.372;2022-11-15T12:40:23;9.80;99.90
8099;DHT22;4092;47.876;9.372;2022-11-15T12:45:52;10.00;99.90
8099;DHT22;4092;47.876;9.372;2022-11-15T12:54:56;10.00;99.90
8099;DHT22;4092;47.876;9.372;2022-11-15T12:57:30;10.00;99.90
8099;DHT22;4092;47.876;9.372;2022-11-15T12:59:59;10.10;99.90
8099;DHT22;4092;47.876;9.372;2022-11-15T13:02:30;10.10;99.90
8099;DHT22;4092;47.876;9.372;2022-11-15T13:07:59;10.10;99.90
8099;DHT22;4092;47.876;9.372;2022-11-15T13:10:30;10.20;99.90
8099;DHT22;4092;47.876;9.372;2022-11-15T13:12:59;10.20;99.90
8099;DHT22;4092;47.876;9.372;2022-11-15T13:15:38;10.20;99.90
8099;DHT22;4092;47.876;9.372;2022-11-15T13:18:31;10.20;99.90
8099;DHT22;4092;47.876;9.372;2022-11-15T13:21:00;10.30;99.90
8099;DHT22;4092;47.876;9.372;2022-11-15T13:23:29;10.30;99.90
8099;DHT22;4092;47.876;9.372;2022-11-15T13:26:12;10.40;99.90
8099;DHT22;4092;47.876;9.372;2022-11-15T13:28:43;10.40;99.90
8099;DHT22;4092;47.876;9.372;2022-11-15T13:31:22;10.40;99.90
8099;DHT22;4092;47.876;9.372;2022-11-15T13:33:50;10.50;99.90
8099;DHT22;4092;47.876;9.372;2022-11-15T13:36:20;10.50;99.90
8099;DHT22;4092;47.876;9.372;2022-11-15T13:38:57;10.50;99.90
8099;DHT22;4092;47.876;9.372;2022-11-15T13:41:27;10.60;99.90
8099;DHT22;4092;47.876;9.372;2022-11-15T13:43:55;10.60;99.90
8099;DHT22;4092;47.876;9.372;2022-11-15T13:46:24;10.70;99.90
8099;DHT22;4092;47.876;9.372;2022-11-15T13:48:53;10.70;99.90
8099;DHT22;4092;47.876;9.372;2022-11-15T13:51:26;10.70;99.90
8099;DHT22;4092;47.876;9.372;2022-11-15T13:53:58;10.80;99.90
8099;DHT22;4092;47.876;9.372;2022-11-15T13:56:26;10.80;99.90
8099;DHT22;4092;47.876;9.372;2022-11-15T13:58:54;10.80;99.90
8099;DHT22;4092;47.876;9.372;2022-11-15T14:01:22;10.90;99.90
8099;DHT22;4092;47.876;9.372;2022-11-15T14:03:55;10.90;99.90
8099;DHT22;4092;47.876;9.372;2022-11-15T14:06:24;10.90;99.90
8099;DHT22;4092;47.876;9.372;2022-11-15T14:09:03;10.90;99.90
8099;DHT22;4092;47.876;9.372;2022-11-15T14:11:30;10.80;99.90
8099;DHT22;4092;47.876;9.372;2022-11-15T14:14:13;10.90;99.90
8099;DHT22;4092;47.876;9.372;2022-11-15T14:16:42;10.80;99.90
8099;DHT22;4092;47.876;9.372;2022-11-15T14:19:11;10.80;99.90
8099;DHT22;4092;47.876;9.372;2022-11-15T14:22:13;10.80;99.90
8099;DHT22;4092;47.876;9.372;2022-11-15T14:24:44;10.80;99.90
8099;DHT22;4092;47.876;9.372;2022-11-15T14:27:22;10.70;99.90
8099;DHT22;4092;47.876;9.372;2022-11-15T14:29:50;10.80;99.90
8099;DHT22;4092;47.876;9.372;2022-11-15T14:32:19;10.80;99.90
8099;DHT22;4092;47.876;9.372;2022-11-15T14:34:47;10.70;99.90
8099;DHT22;4092;47.876;9.372;2022-11-15T14:37:22;10.70;99.90
8099;DHT22;4092;47.876;9.372;2022-11-15T14:39:51;10.70;99.90
8099;DHT22;4092;47.876;9.372;2022-11-15T14:42:19;10.70;99.90
8099;DHT22;4092;47.876;9.372;2022-11-15T14:44:48;10.70;99.90
8099;DHT22;4092;47.876;9.372;2022-11-15T14:47:15;10.70;99.90
8099;DHT22;4092;47.876;9.372;2022-11-15T14:49:42;10.70;99.90
8099;DHT22;4092;47.876;9.372;2022-11-15T14:52:24;10.70;99.90
8099;DHT22;4092;47.876;9.372;2022-11-15T14:54:52;10.60;99.90
8099;DHT22;4092;47.876;9.372;2022-11-15T14:57:20;10.70;99.90
8099;DHT22;4092;47.876;9.372;2022-11-15T14:59:47;10.60;99.90
8099;DHT22;4092;47.876;9.372;2022-11-15T15:02:18;10.60;99.90
8099;DHT22;4092;47.876;9.372;2022-11-15T15:04:45;10.40;99.90
8099;DHT22;4092;47.876;9.372;2022-11-15T15:07:13;10.40;99.90
8099;DHT22;4092;47.876;9.372;2022-11-15T15:09:40;10.30;99.90
8099;DHT22;4092;47.876;9.372;2022-11-15T15:12:15;10.30;99.90
8099;DHT22;4092;47.876;9.372;2022-11-15T15:14:43;10.30;99.90
8099;DHT22;4092;47.876;9.372;2022-11-15T15:17:10;10.30;99.90
8099;DHT22;4092;47.876;9.372;2022-11-15T15:19:37;10.30;99.90
8099;DHT22;4092;47.876;9.372;2022-11-15T15:22:04;10.20;99.90
8099;DHT22;4092;47.876;9.372;2022-11-15T15:24:31;10.20;99.90
8099;DHT22;4092;47.876;9.372;2022-11-15T15:26:58;10.10;99.90
8099;DHT22;4092;47.876;9.372;2022-11-15T15:29:26;10.00;99.90
8099;DHT22;4092;47.876;9.372;2022-11-15T15:31:53;10.00;99.90
8099;DHT22;4092;47.876;9.372;2022-11-15T15:34:20;10.00;99.90
8099;DHT22;4092;47.876;9.372;2022-11-15T15:36:47;9.90;99.90
8099;DHT22;4092;47.876;9.372;2022-11-15T15:39:14;9.90;99.90
8099;DHT22;4092;47.876;9.372;2022-11-15T15:41:42;9.90;99.90
8099;DHT22;4092;47.876;9.372;2022-11-15T15:44:08;9.90;99.90
8099;DHT22;4092;47.876;9.372;2022-11-15T15:46:37;9.80;99.90
8099;DHT22;4092;47.876;9.372;2022-11-15T15:49:04;9.80;99.90
8099;DHT22;4092;47.876;9.372;2022-11-15T15:51:31;9.60;99.90
8099;DHT22;4092;47.876;9.372;2022-11-15T15:53:58;9.60;99.90
8099;DHT22;4092;47.876;9.372;2022-11-15T15:56:25;9.50;99.90
8099;DHT22;4092;47.876;9.372;2022-11-15T15:58:53;9.40;99.90
8099;DHT22;4092;47.876;9.372;2022-11-15T16:01:21;9.50;99.90
8099;DHT22;4092;47.876;9.372;2022-11-15T16:03:49;9.40;99.90
8099;DHT22;4092;47.876;9.372;2022-11-15T16:06:35;9.40;99.90
8099;DHT22;4092;47.876;9.372;2022-11-15T16:09:04;9.40;99.90
8099;DHT22;4092;47.876;9.372;2022-11-15T16:11:31;9.30;99.90
8099;DHT22;4092;47.876;9.372;2022-11-15T16:13:58;9.30;99.90
8099;DHT22;4092;47.876;9.372;2022-11-15T16:16:26;9.20;99.90
8099;DHT22;4092;47.876;9.372;2022-11-15T16:18:54;9.20;99.90
8099;DHT22;4092;47.876;9.372;2022-11-15T16:21:21;9.00;99.90
8099;DHT22;4092;47.876;9.372;2022-11-15T16:23:48;9.00;99.90
8099;DHT22;4092;47.876;9.372;2022-11-15T16:26:20;9.00;99.90
8099;DHT22;4092;47.876;9.372;2022-11-15T16:28:48;9.00;99.90
8099;DHT22;4092;47.876;9.372;2022-11-15T16:31:15;9.00;99.90
8099;DHT22;4092;47.876;9.372;2022-11-15T16:33:46;9.00;99.90
8099;DHT22;4092;47.876;9.372;2022-11-15T16:36:20;8.90;99.90
8099;DHT22;4092;47.876;9.372;2022-11-15T16:38:48;8.90;99.90
8099;DHT22;4092;47.876;9.372;2022-11-15T16:41:15;8.90;99.90
8099;DHT22;4092;47.876;9.372;2022-11-15T16:43:44;8.90;99.90
8099;DHT22;4092;47.876;9.372;2022-11-15T16:46:15;8.90;99.90
8099;DHT22;4092;47.876;9.372;2022-11-15T16:48:44;8.80;99.90
8099;DHT22;4092;47.876;9.372;2022-11-15T16:51:11;8.80;99.90
8099;DHT22;4092;47.876;9.372;2022-11-15T16:53:39;8.80;99.90
8099;DHT22;4092;47.876;9.372;2022-11-15T16:56:17;8.80;99.90